sensor_id;sensor_type;location;lat;lon;timestamp;pressure;altitude;pressure_sealevel;temperature;humidity
59789;BME280;47353;51.614;5.530;2023-04-01T00:00:28;99035.44;;;8.61;100.00
59789;BME280;47353;51.614;5.530;2023-04-01T00:02:54;99034.84;;;8.64;100.00
59789;BME280;47353;51.614;5.530;2023-04-01T00:05:20;99022.59;;;8.57;100.00
59789;BME280;47353;51.614;5.530;2023-04-01T00:07:45;99038.72;;;8.63;100.00
59789;BME280;47353;51.614;5.530;2023-04-01T00:10:12;99025.75;;;8.50;100.00
59789;BME280;47353;51.614;5.530;2023-04-01T00:12:38;99039.44;;;8.55;100.00
59789;BME280;47353;51.614;5.530;2023-04-01T00:15:06;99053.13;;;8.60;100.00
59789;BME280;47353;51.614;5.530;2023-04-01T00:17:33;99057.31;;;8.58;100.00
59789;BME280;47353;51.614;5.530;2023-04-01T00:19:58;99046.50;;;8.61;100.00
59789;BME280;47353;51.614;5.530;2023-04-01T00:22:24;99045.47;;;8.57;100.00
59789;BME280;47353;51.614;5.530;2023-04-01T00:24:51;99041.06;;;8.56;100.00
59789;BME280;47353;51.614;5.530;2023-04-01T00:27:17;99048.09;;;8.62;100.00
59789;BME280;47353;51.614;5.530;2023-04-01T00:29:43;99057.81;;;8.60;100.00
59789;BME280;47353;51.614;5.530;2023-04-01T00:32:09;99039.66;;;8.59;100.00
59789;BME280;47353;51.614;5.530;2023-04-01T00:34:35;99054.97;;;8.65;100.00
59789;BME280;47353;51.614;5.530;2023-04-01T00:37:00;99050.47;;;8.55;100.00
59789;BME280;47353;51.614;5.530;2023-04-01T00:39:31;99061.41;;;8.60;100.00
59789;BME280;47353;51.614;5.530;2023-04-01T00:41:57;99052.94;;;8.57;100.00
59789;BME280;47353;51.614;5.530;2023-04-01T00:44:26;99071.31;;;8.61;100.00
59789;BME280;47353;51.614;5.530;2023-04-01T00:46:52;99054.06;;;8.56;100.00
59789;BME280;47353;51.614;5.530;2023-04-01T00:49:19;99062.22;;;8.61;100.00
59789;BME280;47353;51.614;5.530;2023-04-01T00:51:48;99067.84;;;8.56;100.00
59789;BME280;47353;51.614;5.530;2023-04-01T00:54:16;99078.88;;;8.56;100.00
59789;BME280;47353;51.614;5.530;2023-04-01T00:56:50;99076.91;;;8.56;100.00
59789;BME280;47353;51.614;5.530;2023-04-01T00:59:23;99068.16;;;8.54;100.00
59789;BME280;47353;51.614;5.530;2023-04-01T01:01:50;99079.66;;;8.56;100.00
59789;BME280;47353;51.614;5.530;2023-04-01T01:04:26;99079.19;;;8.54;100.00
59789;BME280;47353;51.614;5.530;2023-04-01T01:07:00;99075.28;;;8.55;100.00
59789;BME280;47353;51.614;5.530;2023-04-01T01:12:21;99072.84;;;8.54;100.00
59789;BME280;47353;51.614;5.530;2023-04-01T01:15:06;99073.38;;;8.56;100.00
59789;BME280;47353;51.614;5.530;2023-04-01T01:31:25;99087.94;;;8.56;100.00
59789;BME280;47353;51.614;5.530;2023-04-01T01:34:21;99078.66;;;8.52;100.00
59789;BME280;47353;51.614;5.530;2023-04-01T01:36:53;99100.63;;;8.57;100.00
59789;BME280;47353;51.614;5.530;2023-04-01T01:39:21;99106.44;;;8.56;100.00
59789;BME280;47353;51.614;5.530;2023-04-01T01:41:53;99098.50;;;8.54;100.00
59789;BME280;47353;51.614;5.530;2023-04-01T01:44:20;99095.91;;;8.58;100.00
59789;BME280;47353;51.614;5.530;2023-04-01T01:46:47;99101.72;;;8.56;100.00
59789;BME280;47353;51.614;5.530;2023-04-01T01:49:14;99094.69;;;8.50;100.00
59789;BME280;47353;51.614;5.530;2023-04-01T01:51:41;99108.69;;;8.54;100.00
59789;BME280;47353;51.614;5.530;2023-04-01T01:54:12;99112.28;;;8.54;100.00
59789;BME280;47353;51.614;5.530;2023-04-01T01:56:38;99113.69;;;8.52;100.00
59789;BME280;47353;51.614;5.530;2023-04-01T01:59:08;99108.16;;;8.52;100.00
59789;BME280;47353;51.614;5.530;2023-04-01T02:01:39;99111.44;;;8.54;100.00
59789;BME280;47353;51.614;5.530;2023-04-01T02:04:07;99120.03;;;8.52;100.00
59789;BME280;47353;51.614;5.530;2023-04-01T02:06:38;99117.28;;;8.52;100.00
59789;BME280;47353;51.614;5.530;2023-04-01T02:09:08;99123.09;;;8.51;100.00
59789;BME280;47353;51.614;5.530;2023-04-01T02:11:51;99129.75;;;8.50;100.00
59789;BME280;47353;51.614;5.530;2023-04-01T02:14:21;99128.09;;;8.48;100.00
59789;BME280;47353;51.614;5.530;2023-04-01T02:19:22;99122.88;;;8.47;100.00
59789;BME280;47353;51.614;5.530;2023-04-01T02:21:56;99126.25;;;8.44;100.00
59789;BME280;47353;51.614;5.530;2023-04-01T02:24:25;99132.88;;;8.43;100.00
59789;BME280;47353;51.614;5.530;2023-04-01T02:26:51;99121.94;;;8.38;100.00
59789;BME280;47353;51.614;5.530;2023-04-01T02:29:19;99128.28;;;8.38;100.00
59789;BME280;47353;51.614;5.530;2023-04-01T02:31:46;99125.63;;;8.33;100.00
59789;BME280;47353;51.614;5.530;2023-04-01T02:34:13;99127.53;;;8.33;100.00
59789;BME280;47353;51.614;5.530;2023-04-01T02:36:39;99131.75;;;8.30;100.00
59789;BME280;47353;51.614;5.530;2023-04-01T02:39:05;99130.13;;;8.29;100.00
59789;BME280;47353;51.614;5.530;2023-04-01T02:41:31;99132.97;;;8.24;100.00
59789;BME280;47353;51.614;5.530;2023-04-01T02:44:03;99131.81;;;8.25;100.00
59789;BME280;47353;51.614;5.530;2023-04-01T02:46:28;99139.00;;;8.26;100.00
59789;BME280;47353;51.614;5.530;2023-04-01T02:48:54;99122.59;;;8.16;100.00
59789;BME280;47353;51.614;5.530;2023-04-01T02:51:19;99148.38;;;8.25;100.00
59789;BME280;47353;51.614;5.530;2023-04-01T02:53:45;99137.13;;;8.22;100.00
59789;BME280;47353;51.614;5.530;2023-04-01T02:56:10;99136.28;;;8.21;100.00
59789;BME280;47353;51.614;5.530;2023-04-01T02:58:36;99149.78;;;8.23;100.00
59789;BME280;47353;51.614;5.530;2023-04-01T03:01:01;99150.63;;;8.23;100.00
59789;BME280;47353;51.614;5.530;2023-04-01T03:03:26;99132.69;;;8.21;100.00
59789;BME280;47353;51.614;5.530;2023-04-01T03:05:52;99152.56;;;8.23;100.00
59789;BME280;47353;51.614;5.530;2023-04-01T03:08:20;99152.00;;;8.21;100.00
59789;BME280;47353;51.614;5.530;2023-04-01T03:10:46;99153.66;;;8.22;100.00
59789;BME280;47353;51.614;5.530;2023-04-01T03:13:11;99160.25;;;8.21;100.00
59789;BME280;47353;51.614;5.530;2023-04-01T03:15:36;99158.06;;;8.23;100.00
59789;BME280;47353;51.614;5.530;2023-04-01T03:18:02;99163.28;;;8.24;100.00
59789;BME280;47353;51.614;5.530;2023-04-01T03:20:28;99163.84;;;8.21;100.00
59789;BME280;47353;51.614;5.530;2023-04-01T03:22:53;99164.09;;;8.25;100.00
59789;BME280;47353;51.614;5.530;2023-04-01T03:25:19;99162.44;;;8.24;100.00
59789;BME280;47353;51.614;5.530;2023-04-01T03:27:44;99163.84;;;8.21;100.00
59789;BME280;47353;51.614;5.530;2023-04-01T03:30:10;99168.53;;;8.21;100.00
59789;BME280;47353;51.614;5.530;2023-04-01T03:32:36;99156.41;;;8.22;100.00
59789;BME280;47353;51.614;5.530;2023-04-01T03:35:01;99174.03;;;8.21;100.00
59789;BME280;47353;51.614;5.530;2023-04-01T03:37:26;99173.53;;;8.19;100.00
59789;BME280;47353;51.614;5.530;2023-04-01T03:39:52;99181.28;;;8.17;100.00
59789;BME280;47353;51.614;5.530;2023-04-01T03:42:18;99171.38;;;8.16;100.00
59789;BME280;47353;51.614;5.530;2023-04-01T03:44:43;99169.13;;;8.18;100.00
59789;BME280;47353;51.614;5.530;2023-04-01T03:47:09;99166.97;;;8.15;100.00
59789;BME280;47353;51.614;5.530;2023-04-01T03:49:35;99170.03;;;8.13;100.00
59789;BME280;47353;51.614;5.530;2023-04-01T03:52:00;99182.69;;;8.14;100.00
59789;BME280;47353;51.614;5.530;2023-04-01T03:54:26;99176.38;;;8.14;100.00
59789;BME280;47353;51.614;5.530;2023-04-01T03:56:51;99179.94;;;8.14;100.00
59789;BME280;47353;51.614;5.530;2023-04-01T03:59:16;99183.53;;;8.15;100.00
59789;BME280;47353;51.614;5.530;2023-04-01T04:01:42;99186.06;;;8.11;100.00
59789;BME280;47353;51.614;5.530;2023-04-01T04:04:10;99204.53;;;8.11;100.00
59789;BME280;47353;51.614;5.530;2023-04-01T04:06:37;99191.38;;;8.08;100.00
59789;BME280;47353;51.614;5.530;2023-04-01T04:09:03;99188.91;;;8.06;100.00
59789;BME280;47353;51.614;5.530;2023-04-01T04:11:30;99191.66;;;8.06;100.00
59789;BME280;47353;51.614;5.530;2023-04-01T04:13:56;99194.72;;;8.05;100.00
59789;BME280;47353;51.614;5.530;2023-04-01T04:16:22;99199.72;;;8.03;100.00
59789;BME280;47353;51.614;5.530;2023-04-01T04:18:47;99201.94;;;8.01;100.00
59789;BME280;47353;51.614;5.530;2023-04-01T04:21:14;99200.00;;;8.01;100.00
59789;BME280;47353;51.614;5.530;2023-04-01T04:23:40;99195.09;;;7.98;100.00
59789;BME280;47353;51.614;5.530;2023-04-01T04:26:08;99197.84;;;7.98;100.00
59789;BME280;47353;51.614;5.530;2023-04-01T04:28:34;99205.00;;;7.99;100.00
59789;BME280;47353;51.614;5.530;2023-04-01T04:31:00;99203.38;;;7.98;100.00
59789;BME280;47353;51.614;5.530;2023-04-01T04:33:26;99196.19;;;7.97;100.00
59789;BME280;47353;51.614;5.530;2023-04-01T04:35:55;99221.81;;;7.98;100.00
59789;BME280;47353;51.614;5.530;2023-04-01T04:38:20;99219.66;;;7.95;100.00
59789;BME280;47353;51.614;5.530;2023-04-01T04:40:46;99221.41;;;7.91;100.00
59789;BME280;47353;51.614;5.530;2023-04-01T04:43:12;99215.88;;;7.91;100.00
59789;BME280;47353;51.614;5.530;2023-04-01T04:45:38;99216.19;;;7.89;100.00
59789;BME280;47353;51.614;5.530;2023-04-01T04:48:03;99218.13;;;7.89;100.00
59789;BME280;47353;51.614;5.530;2023-04-01T04:50:29;99220.03;;;7.88;100.00
59789;BME280;47353;51.614;5.530;2023-04-01T04:52:54;99220.03;;;7.88;100.00
59789;BME280;47353;51.614;5.530;2023-04-01T04:55:20;99227.81;;;7.86;100.00
59789;BME280;47353;51.614;5.530;2023-04-01T04:57:45;99234.09;;;7.87;100.00
59789;BME280;47353;51.614;5.530;2023-04-01T05:00:11;99237.63;;;7.92;100.00
59789;BME280;47353;51.614;5.530;2023-04-01T05:02:37;99246.25;;;7.86;100.00
59789;BME280;47353;51.614;5.530;2023-04-01T05:05:02;99244.81;;;7.88;100.00
59789;BME280;47353;51.614;5.530;2023-04-01T05:07:29;99240.44;;;7.87;100.00
59789;BME280;47353;51.614;5.530;2023-04-01T05:09:55;99239.41;;;7.83;100.00
59789;BME280;47353;51.614;5.530;2023-04-01T05:12:20;99244.81;;;7.88;100.00
59789;BME280;47353;51.614;5.530;2023-04-01T05:14:45;99253.91;;;7.89;100.00
59789;BME280;47353;51.614;5.530;2023-04-01T05:17:12;99263.81;;;7.90;100.00
59789;BME280;47353;51.614;5.530;2023-04-01T05:19:39;99262.72;;;7.91;100.00
59789;BME280;47353;51.614;5.530;2023-04-01T05:22:05;99264.94;;;7.89;100.00
59789;BME280;47353;51.614;5.530;2023-04-01T05:24:31;99262.19;;;7.89;100.00
59789;BME280;47353;51.614;5.530;2023-04-01T05:26:58;99251.53;;;7.82;100.00
59789;BME280;47353;51.614;5.530;2023-04-01T05:29:24;99275.06;;;7.93;100.00
59789;BME280;47353;51.614;5.530;2023-04-01T05:31:50;99266.28;;;7.91;100.00
59789;BME280;47353;51.614;5.530;2023-04-01T05:34:15;99277.00;;;7.93;100.00
59789;BME280;47353;51.614;5.530;2023-04-01T05:36:42;99280.34;;;7.90;100.00
59789;BME280;47353;51.614;5.530;2023-04-01T05:39:08;99288.53;;;7.95;100.00
59789;BME280;47353;51.614;5.530;2023-04-01T05:41:38;99289.06;;;7.97;100.00
59789;BME280;47353;51.614;5.530;2023-04-01T05:44:04;99284.97;;;7.94;100.00
59789;BME280;47353;51.614;5.530;2023-04-01T05:46:30;99293.16;;;7.99;100.00
59789;BME280;47353;51.614;5.530;2023-04-01T05:48:55;99305.00;;;8.00;100.00
59789;BME280;47353;51.614;5.530;2023-04-01T05:51:21;99302.25;;;8.00;100.00
59789;BME280;47353;51.614;5.530;2023-04-01T05:53:46;99309.09;;;8.02;100.00
59789;BME280;47353;51.614;5.530;2023-04-01T05:56:12;99308.50;;;8.05;100.00
59789;BME280;47353;51.614;5.530;2023-04-01T05:58:38;99312.69;;;8.03;100.00
59789;BME280;47353;51.614;5.530;2023-04-01T06:01:06;99315.06;;;8.09;100.00
59789;BME280;47353;51.614;5.530;2023-04-01T06:03:32;99319.44;;;8.10;100.00
59789;BME280;47353;51.614;5.530;2023-04-01T06:05:58;99319.69;;;8.14;100.00
59789;BME280;47353;51.614;5.530;2023-04-01T06:08:26;99324.59;;;8.17;100.00
59789;BME280;47353;51.614;5.530;2023-04-01T06:22:12;99351.53;;;8.25;100.00
59789;BME280;47353;51.614;5.530;2023-04-01T06:33:11;99369.53;;;8.36;100.00
59789;BME280;47353;51.614;5.530;2023-04-01T06:53:22;99390.56;;;8.51;100.00
59789;BME280;47353;51.614;5.530;2023-04-01T06:55:55;99389.34;;;8.57;100.00
59789;BME280;47353;51.614;5.530;2023-04-01T06:58:30;99399.25;;;8.58;100.00
59789;BME280;47353;51.614;5.530;2023-04-01T07:01:02;99404.78;;;8.58;100.00
59789;BME280;47353;51.614;5.530;2023-04-01T07:03:34;99406.44;;;8.59;100.00
59789;BME280;47353;51.614;5.530;2023-04-01T07:06:08;99411.88;;;8.64;100.00
59789;BME280;47353;51.614;5.530;2023-04-01T07:08:38;99413.50;;;8.65;100.00
59789;BME280;47353;51.614;5.530;2023-04-01T07:11:08;99406.88;;;8.66;100.00
59789;BME280;47353;51.614;5.530;2023-04-01T07:16:15;99417.53;;;8.72;100.00
59789;BME280;47353;51.614;5.530;2023-04-01T07:18:56;99429.09;;;8.74;100.00
59789;BME280;47353;51.614;5.530;2023-04-01T07:21:27;99418.06;;;8.74;100.00
59789;BME280;47353;51.614;5.530;2023-04-01T07:23:57;99439.22;;;8.79;100.00
59789;BME280;47353;51.614;5.530;2023-04-01T07:26:26;99434.50;;;8.79;100.00
59789;BME280;47353;51.614;5.530;2023-04-01T07:28:53;99439.16;;;8.84;100.00
59789;BME280;47353;51.614;5.530;2023-04-01T07:34:28;99442.19;;;8.82;100.00
59789;BME280;47353;51.614;5.530;2023-04-01T07:39:57;99454.81;;;8.88;100.00
59789;BME280;47353;51.614;5.530;2023-04-01T07:45:38;99468.75;;;8.97;100.00
59789;BME280;47353;51.614;5.530;2023-04-01T07:50:53;99474.00;;;9.12;100.00
59789;BME280;47353;51.614;5.530;2023-04-01T07:53:38;99478.31;;;9.18;100.00
59789;BME280;47353;51.614;5.530;2023-04-01T07:56:15;99475.41;;;9.28;100.00
59789;BME280;47353;51.614;5.530;2023-04-01T07:59:09;99479.81;;;9.29;100.00
59789;BME280;47353;51.614;5.530;2023-04-01T08:05:03;99485.31;;;9.29;100.00
59789;BME280;47353;51.614;5.530;2023-04-01T08:07:40;99491.44;;;9.26;100.00
59789;BME280;47353;51.614;5.530;2023-04-01T08:15:49;99504.06;;;9.13;100.00
59789;BME280;47353;51.614;5.530;2023-04-01T08:18:41;99510.00;;;9.07;100.00
59789;BME280;47353;51.614;5.530;2023-04-01T08:21:21;99519.16;;;9.02;100.00
59789;BME280;47353;51.614;5.530;2023-04-01T08:23:51;99517.16;;;9.08;100.00
59789;BME280;47353;51.614;5.530;2023-04-01T08:26:35;99518.94;;;9.17;100.00
59789;BME280;47353;51.614;5.530;2023-04-01T08:29:19;99518.41;;;9.15;100.00
59789;BME280;47353;51.614;5.530;2023-04-01T08:31:53;99517.56;;;9.15;100.00
59789;BME280;47353;51.614;5.530;2023-04-01T08:34:26;99530.56;;;9.14;100.00
59789;BME280;47353;51.614;5.530;2023-04-01T08:36:58;99527.22;;;9.17;100.00
59789;BME280;47353;51.614;5.530;2023-04-01T08:39:36;99530.63;;;9.28;100.00
59789;BME280;47353;51.614;5.530;2023-04-01T08:50:49;99556.44;;;9.37;100.00
59789;BME280;47353;51.614;5.530;2023-04-01T09:04:28;99570.31;;;9.32;100.00
59789;BME280;47353;51.614;5.530;2023-04-01T09:15:25;99592.66;;;9.35;100.00
59789;BME280;47353;51.614;5.530;2023-04-01T09:29:02;99607.66;;;9.48;100.00
59789;BME280;47353;51.614;5.530;2023-04-01T09:40:33;99618.16;;;9.46;100.00
59789;BME280;47353;51.614;5.530;2023-04-01T09:45:48;99625.03;;;9.48;100.00
59789;BME280;47353;51.614;5.530;2023-04-01T09:56:23;99640.91;;;9.75;100.00
59789;BME280;47353;51.614;5.530;2023-04-01T10:29:55;99664.63;;;10.59;100.00
59789;BME280;47353;51.614;5.530;2023-04-01T10:47:39;99679.78;;;10.61;100.00
59789;BME280;47353;51.614;5.530;2023-04-01T11:03:55;99686.59;;;10.23;100.00
59789;BME280;47353;51.614;5.530;2023-04-01T11:23:43;99718.63;;;10.24;100.00
59789;BME280;47353;51.614;5.530;2023-04-01T11:36:56;99736.97;;;10.20;100.00
59789;BME280;47353;51.614;5.530;2023-04-01T11:39:40;99720.75;;;10.13;100.00
59789;BME280;47353;51.614;5.530;2023-04-01T11:42:20;99746.38;;;10.38;100.00
59789;BME280;47353;51.614;5.530;2023-04-01T11:45:00;99746.66;;;10.36;100.00
59789;BME280;47353;51.614;5.530;2023-04-01T11:58:33;99753.06;;;10.50;100.00
59789;BME280;47353;51.614;5.530;2023-04-01T12:06:48;99769.81;;;10.72;100.00
59789;BME280;47353;51.614;5.530;2023-04-01T12:09:31;99772.09;;;10.70;100.00
59789;BME280;47353;51.614;5.530;2023-04-01T12:14:54;99776.03;;;10.64;100.00
59789;BME280;47353;51.614;5.530;2023-04-01T12:17:39;99776.16;;;10.59;100.00
59789;BME280;47353;51.614;5.530;2023-04-01T12:32:02;99798.94;;;10.70;100.00
59789;BME280;47353;51.614;5.530;2023-04-01T12:39:56;99812.53;;;10.66;100.00
59789;BME280;47353;51.614;5.530;2023-04-01T12:45:32;99815.66;;;10.78;100.00
59789;BME280;47353;51.614;5.530;2023-04-01T12:51:04;99821.75;;;10.62;100.00
59789;BME280;47353;51.614;5.530;2023-04-01T12:53:51;99822.06;;;10.60;100.00
59789;BME280;47353;51.614;5.530;2023-04-01T12:59:13;99827.88;;;10.59;100.00
59789;BME280;47353;51.614;5.530;2023-04-01T13:05:00;99821.81;;;10.57;100.00
59789;BME280;47353;51.614;5.530;2023-04-01T13:07:38;99830.06;;;10.62;100.00
59789;BME280;47353;51.614;5.530;2023-04-01T13:24:41;99861.31;;;10.62;100.00
59789;BME280;47353;51.614;5.530;2023-04-01T13:29:45;99860.34;;;10.72;100.00
59789;BME280;47353;51.614;5.530;2023-04-01T13:32:22;99867.28;;;10.69;100.00
59789;BME280;47353;51.614;5.530;2023-04-01T13:43:49;99878.94;;;10.85;100.00
59789;BME280;47353;51.614;5.530;2023-04-01T13:52:12;99883.88;;;10.69;100.00
59789;BME280;47353;51.614;5.530;2023-04-01T14:03:03;99892.47;;;10.86;100.00
59789;BME280;47353;51.614;5.530;2023-04-01T14:05:47;99892.41;;;10.91;100.00
59789;BME280;47353;51.614;5.530;2023-04-01T14:08:55;99901.72;;;10.95;100.00
59789;BME280;47353;51.614;5.530;2023-04-01T14:11:34;99906.97;;;10.97;100.00
59789;BME280;47353;51.614;5.530;2023-04-01T14:33:19;99924.97;;;10.62;100.00
59789;BME280;47353;51.614;5.530;2023-04-01T14:36:09;99931.25;;;10.68;100.00
59789;BME280;47353;51.614;5.530;2023-04-01T14:39:07;99920.25;;;10.63;100.00
59789;BME280;47353;51.614;5.530;2023-04-01T14:50:45;99942.97;;;10.60;100.00
59789;BME280;47353;51.614;5.530;2023-04-01T14:53:13;99946.50;;;10.65;100.00
59789;BME280;47353;51.614;5.530;2023-04-01T14:55:59;99950.09;;;10.66;100.00
59789;BME280;47353;51.614;5.530;2023-04-01T14:58:46;99950.69;;;10.63;100.00
59789;BME280;47353;51.614;5.530;2023-04-01T15:01:32;99956.44;;;10.66;100.00
59789;BME280;47353;51.614;5.530;2023-04-01T15:07:27;99956.97;;;10.68;100.00
59789;BME280;47353;51.614;5.530;2023-04-01T15:16:14;99970.16;;;10.76;100.00
59789;BME280;47353;51.614;5.530;2023-04-01T15:18:56;99975.75;;;10.71;100.00
59789;BME280;47353;51.614;5.530;2023-04-01T15:21:34;99979.06;;;10.73;100.00
59789;BME280;47353;51.614;5.530;2023-04-01T15:46:30;100008.16;;;10.47;100.00
59789;BME280;47353;51.614;5.530;2023-04-01T15:55:10;100010.16;;;10.23;100.00
59789;BME280;47353;51.614;5.530;2023-04-01T16:00:21;100013.09;;;10.03;100.00
59789;BME280;47353;51.614;5.530;2023-04-01T16:06:44;100030.03;;;9.96;100.00
59789;BME280;47353;51.614;5.530;2023-04-01T16:11:18;100025.72;;;9.85;100.00
59789;BME280;47353;51.614;5.530;2023-04-01T16:14:12;100014.97;;;9.84;100.00
59789;BME280;47353;51.614;5.530;2023-04-01T16:21:46;100038.69;;;9.90;100.00
59789;BME280;47353;51.614;5.530;2023-04-01T16:26:54;100031.22;;;9.90;100.00
59789;BME280;47353;51.614;5.530;2023-04-01T16:29:30;100039.47;;;9.95;100.00
59789;BME280;47353;51.614;5.530;2023-04-01T16:34:47;100041.22;;;9.86;100.00
59789;BME280;47353;51.614;5.530;2023-04-01T16:37:22;100050.59;;;9.85;100.00
59789;BME280;47353;51.614;5.530;2023-04-01T16:42:43;100051.25;;;9.77;100.00
59789;BME280;47353;51.614;5.530;2023-04-01T16:47:59;100061.91;;;9.89;100.00
59789;BME280;47353;51.614;5.530;2023-04-01T16:53:17;100081.41;;;10.02;100.00
59789;BME280;47353;51.614;5.530;2023-04-01T16:58:36;100090.47;;;10.13;100.00
59789;BME280;47353;51.614;5.530;2023-04-01T17:01:23;100087.13;;;10.16;100.00
59789;BME280;47353;51.614;5.530;2023-04-01T17:03:57;100096.47;;;10.20;100.00
59789;BME280;47353;51.614;5.530;2023-04-01T17:09:45;100114.13;;;10.24;100.00
59789;BME280;47353;51.614;5.530;2023-04-01T17:23:50;100142.59;;;10.25;100.00
59789;BME280;47353;51.614;5.530;2023-04-01T17:26:59;100148.97;;;10.25;100.00
59789;BME280;47353;51.614;5.530;2023-04-01T17:35:18;100156.53;;;10.15;100.00
59789;BME280;47353;51.614;5.530;2023-04-01T17:43:30;100178.66;;;10.15;100.00
59789;BME280;47353;51.614;5.530;2023-04-01T17:46:24;100193.88;;;10.12;100.00
59789;BME280;47353;51.614;5.530;2023-04-01T18:14:23;100255.69;;;9.87;100.00
59789;BME280;47353;51.614;5.530;2023-04-01T18:17:08;100267.03;;;9.86;100.00
59789;BME280;47353;51.614;5.530;2023-04-01T18:22:48;100277.88;;;9.77;100.00
59789;BME280;47353;51.614;5.530;2023-04-01T18:25:38;100287.31;;;9.71;100.00
59789;BME280;47353;51.614;5.530;2023-04-01T18:30:40;100294.53;;;9.62;100.00
59789;BME280;47353;51.614;5.530;2023-04-01T18:33:30;100308.63;;;9.61;100.00
59789;BME280;47353;51.614;5.530;2023-04-01T18:36:24;100320.25;;;9.58;100.00
59789;BME280;47353;51.614;5.530;2023-04-01T18:39:10;100327.72;;;9.52;100.00
59789;BME280;47353;51.614;5.530;2023-04-01T18:47:22;100342.97;;;9.45;100.00
59789;BME280;47353;51.614;5.530;2023-04-01T18:57:47;100376.13;;;9.35;100.00
59789;BME280;47353;51.614;5.530;2023-04-01T19:00:22;100381.69;;;9.30;100.00
59789;BME280;47353;51.614;5.530;2023-04-01T19:05:39;100393.00;;;9.28;100.00
59789;BME280;47353;51.614;5.530;2023-04-01T19:11:09;100401.56;;;9.27;100.00
59789;BME280;47353;51.614;5.530;2023-04-01T19:14:13;100409.59;;;9.23;100.00
59789;BME280;47353;51.614;5.530;2023-04-01T19:17:04;100417.84;;;9.18;100.00
59789;BME280;47353;51.614;5.530;2023-04-01T19:19:56;100426.69;;;9.15;100.00
59789;BME280;47353;51.614;5.530;2023-04-01T19:22:37;100433.06;;;9.06;100.00
59789;BME280;47353;51.614;5.530;2023-04-01T19:27:50;100440.81;;;8.99;100.00
59789;BME280;47353;51.614;5.530;2023-04-01T19:38:27;100454.31;;;8.90;100.00
59789;BME280;47353;51.614;5.530;2023-04-01T19:41:23;100462.59;;;8.90;100.00
59789;BME280;47353;51.614;5.530;2023-04-01T19:46:39;100470.31;;;8.83;100.00
59789;BME280;47353;51.614;5.530;2023-04-01T19:58:17;100495.97;;;8.79;100.00
59789;BME280;47353;51.614;5.530;2023-04-01T20:05:54;100517.19;;;8.73;100.00
59789;BME280;47353;51.614;5.530;2023-04-01T20:11:30;100530.97;;;8.63;100.00
59789;BME280;47353;51.614;5.530;2023-04-01T20:22:29;100562.97;;;8.54;100.00
59789;BME280;47353;51.614;5.530;2023-04-01T20:25:06;100571.47;;;8.48;100.00
59789;BME280;47353;51.614;5.530;2023-04-01T20:27:41;100564.84;;;8.48;100.00
59789;BME280;47353;51.614;5.530;2023-04-01T20:30:27;100575.88;;;8.43;100.00
59789;BME280;47353;51.614;5.530;2023-04-01T20:36:30;100588.53;;;8.39;100.00
59789;BME280;47353;51.614;5.530;2023-04-01T20:53:05;100613.28;;;8.24;100.00
59789;BME280;47353;51.614;5.530;2023-04-01T21:01:32;100636.91;;;8.20;100.00
59789;BME280;47353;51.614;5.530;2023-04-01T21:04:22;100645.44;;;8.14;100.00
59789;BME280;47353;51.614;5.530;2023-04-01T21:12:43;100653.94;;;8.07;100.00
59789;BME280;47353;51.614;5.530;2023-04-01T21:15:33;100665.50;;;8.04;100.00
59789;BME280;47353;51.614;5.530;2023-04-01T21:21:28;100673.16;;;7.97;100.00
59789;BME280;47353;51.614;5.530;2023-04-01T21:27:12;100701.47;;;7.88;100.00
59789;BME280;47353;51.614;5.530;2023-04-01T21:49:08;100735.16;;;7.68;100.00
59789;BME280;47353;51.614;5.530;2023-04-01T22:02:56;100773.44;;;7.65;100.00
59789;BME280;47353;51.614;5.530;2023-04-01T22:09:25;100784.59;;;7.53;100.00
59789;BME280;47353;51.614;5.530;2023-04-01T22:18:08;100801.19;;;7.37;100.00
59789;BME280;47353;51.614;5.530;2023-04-01T22:28:25;100822.03;;;7.28;100.00
59789;BME280;47353;51.614;5.530;2023-04-01T22:30:59;100822.81;;;7.28;100.00
59789;BME280;47353;51.614;5.530;2023-04-01T22:33:36;100827.78;;;7.26;100.00
59789;BME280;47353;51.614;5.530;2023-04-01T22:43:43;100850.81;;;7.20;100.00
59789;BME280;47353;51.614;5.530;2023-04-01T22:49:07;100844.56;;;7.25;100.00
59789;BME280;47353;51.614;5.530;2023-04-01T22:51:53;100868.16;;;7.21;100.00
59789;BME280;47353;51.614;5.530;2023-04-01T22:54:29;100865.03;;;7.12;100.00
59789;BME280;47353;51.614;5.530;2023-04-01T23:02:14;100881.13;;;7.04;100.00
59789;BME280;47353;51.614;5.530;2023-04-01T23:04:43;100878.88;;;7.01;100.00
59789;BME280;47353;51.614;5.530;2023-04-01T23:10:41;100897.22;;;6.95;100.00
59789;BME280;47353;51.614;5.530;2023-04-01T23:13:16;100893.00;;;6.88;100.00
59789;BME280;47353;51.614;5.530;2023-04-01T23:15:43;100902.91;;;6.89;100.00
59789;BME280;47353;51.614;5.530;2023-04-01T23:23:36;100910.81;;;6.85;100.00
59789;BME280;47353;51.614;5.530;2023-04-01T23:26:24;100910.50;;;6.82;100.00
59789;BME280;47353;51.614;5.530;2023-04-01T23:28:53;100922.00;;;6.78;100.00
59789;BME280;47353;51.614;5.530;2023-04-01T23:31:38;100918.31;;;6.90;100.00
59789;BME280;47353;51.614;5.530;2023-04-01T23:36:40;100943.34;;;6.71;100.00
59789;BME280;47353;51.614;5.530;2023-04-01T23:39:25;100947.69;;;6.67;100.00
59789;BME280;47353;51.614;5.530;2023-04-01T23:41:54;100949.34;;;6.68;100.00
59789;BME280;47353;51.614;5.530;2023-04-01T23:44:20;100953.44;;;6.66;100.00
59789;BME280;47353;51.614;5.530;2023-04-01T23:46:47;100958.34;;;6.64;100.00
59789;BME280;47353;51.614;5.530;2023-04-01T23:49:20;100955.84;;;6.62;100.00
59789;BME280;47353;51.614;5.530;2023-04-01T23:51:53;100962.44;;;6.61;100.00
59789;BME280;47353;51.614;5.530;2023-04-01T23:54:29;100973.69;;;6.60;100.00
59789;BME280;47353;51.614;5.530;2023-04-01T23:56:57;100977.47;;;6.59;100.00
59789;BME280;47353;51.614;5.530;2023-04-01T23:59:30;100987.66;;;6.58;100.00
